createdAt,value
2016-07-02T00:00:04.054Z,998.32
2016-07-02T00:15:14.826Z,998.34
2016-07-02T00:30:04.145Z,998.26
2016-07-02T00:45:04.066Z,997.99
2016-07-02T01:15:04.067Z,997.95
2016-07-02T01:30:03.630Z,997.83
2016-07-02T01:45:05.646Z,997.78
2016-07-02T02:00:05.807Z,997.68
2016-07-02T02:15:10.857Z,997.48
2016-07-02T02:30:05.817Z,997.38
2016-07-02T02:45:06.170Z,997.39
2016-07-02T03:00:01.504Z,997.36
2016-07-02T03:15:07.727Z,997.47
2016-07-02T03:30:14.041Z,997.66
2016-07-02T03:45:05.764Z,997.76
2016-07-02T04:00:04.194Z,997.96
2016-07-02T04:14:59.522Z,998.22
2016-07-02T04:30:09.964Z,998.3
2016-07-02T04:45:04.212Z,998.45
2016-07-02T05:00:06.653Z,998.65
2016-07-02T05:15:04.185Z,998.96
2016-07-02T05:30:04.137Z,998.91
2016-07-02T05:45:05.764Z,999.17
2016-07-02T06:14:59.616Z,999.46
2016-07-02T06:30:05.773Z,999.49
2016-07-02T06:45:04.153Z,999.67
2016-07-02T06:59:59.558Z,999.86
2016-07-02T07:15:01.603Z,999.98
2016-07-02T07:29:59.598Z,1000.19
2016-07-02T07:45:04.169Z,1000.22
2016-07-02T08:00:04.195Z,1000.31
2016-07-02T08:15:05.953Z,1000.28
2016-07-02T08:30:10.848Z,1000.51
2016-07-02T08:45:01.597Z,1000.81
2016-07-02T09:00:04.193Z,1000.57
2016-07-02T09:15:04.205Z,1000.85
2016-07-02T09:30:04.292Z,1001.06
2016-07-02T09:44:59.662Z,1000.98
2016-07-02T10:00:04.226Z,1001.26
2016-07-02T10:15:05.952Z,1001.41
2016-07-02T10:30:04.295Z,1001.25
2016-07-02T10:45:04.578Z,1001.2
2016-07-02T11:00:05.861Z,1001.06
2016-07-02T11:14:59.653Z,1001.29
2016-07-02T11:29:59.650Z,1001.15
2016-07-02T11:45:04.299Z,1000.9
2016-07-02T12:00:05.970Z,1000.92
2016-07-02T12:15:05.773Z,1001.12
2016-07-02T12:29:59.667Z,1001.01
2016-07-02T12:45:04.310Z,1001.06
2016-07-02T13:00:04.285Z,1000.98
2016-07-02T13:15:04.286Z,1001.01
2016-07-02T13:30:03.711Z,1001.01
2016-07-02T13:45:04.324Z,1001.11
2016-07-02T14:00:04.314Z,1001.17
2016-07-02T14:14:59.709Z,1001.23
2016-07-02T14:30:04.306Z,1001.45
2016-07-02T14:45:01.728Z,1002.08
2016-07-02T15:00:08.999Z,1002.29
2016-07-02T15:15:01.839Z,1002.35
2016-07-02T15:30:08.565Z,1002.51
2016-07-02T15:45:01.837Z,1002.34
2016-07-02T15:59:59.751Z,1002.59
2016-07-02T16:14:59.796Z,1002.59
2016-07-02T16:30:04.378Z,1002.43
2016-07-02T16:45:04.385Z,1002.55
2016-07-02T16:59:59.749Z,1002.7
2016-07-02T17:15:06.052Z,1002.74
2016-07-02T17:30:05.975Z,1002.81
2016-07-02T17:45:12.603Z,1002.94
2016-07-02T18:00:05.992Z,1003.13
2016-07-02T18:15:04.709Z,1003.88
2016-07-02T18:30:04.462Z,1004.06
2016-07-02T18:44:59.836Z,1003.93
2016-07-02T19:00:04.405Z,1004.02
2016-07-02T19:14:59.796Z,1004.42
2016-07-02T19:30:04.455Z,1004.54
2016-07-02T19:45:04.726Z,1004.86
2016-07-02T20:00:01.847Z,1004.98
2016-07-02T20:15:06.084Z,1004.82
2016-07-02T20:30:06.115Z,1004.94
2016-07-02T20:45:04.434Z,1005.15
2016-07-02T21:00:04.438Z,1005.32
2016-07-02T21:15:06.034Z,1005.47
2016-07-02T21:30:04.886Z,1005.49
2016-07-02T21:45:04.460Z,1005.49
2016-07-02T21:59:59.803Z,1005.56
2016-07-02T22:14:59.807Z,1005.45
2016-07-02T22:29:59.812Z,1005.66
2016-07-02T22:44:59.837Z,1005.69
2016-07-02T22:59:59.903Z,1005.62
2016-07-02T23:15:04.435Z,1005.8
2016-07-02T23:30:11.081Z,1005.7
2016-07-02T23:45:14.371Z,1005.94
